Time;durP1;ratioP1;P1;durP2;ratioP2;P2;SDS_P1;SDS_P2;PMS_P1;PMS_P2;Temp;Humidity;BMP_temperature;BMP_pressure;BME280_temperature;BME280_humidity;BME280_pressure;Samples;Min_cycle;Max_cycle;Signal;HPM_P1;HPM_P2
2021/12/25 00:02:01;;;;;;;18.00;11.88;;;;;;;7.45;100.00;98619.13;4865997;29;20032;-92
2021/12/25 00:04:29;;;;;;;16.80;11.30;;;;;;;7.45;100.00;98613.81;4868445;29;20069;-88
2021/12/25 00:06:58;;;;;;;15.35;10.98;;;;;;;7.43;100.00;98613.97;4867049;29;20044;-90
2021/12/25 00:09:27;;;;;;;17.65;11.43;;;;;;;7.44;100.00;98614.78;4867504;29;20112;-89
2021/12/25 00:11:54;;;;;;;;;;;;;;;7.44;100.00;98612.13;4883157;29;20041;-89
2021/12/25 00:14:23;;;;;;;20.20;11.85;;;;;;;7.44;100.00;98617.47;4874639;29;19927;-89
2021/12/25 00:16:53;;;;;;;17.05;11.48;;;;;;;7.46;100.00;98626.13;4868285;29;20061;-89
2021/12/25 00:19:21;;;;;;;17.75;11.70;;;;;;;7.45;100.00;98613.81;4880916;29;20040;-90
2021/12/25 00:21:50;;;;;;;16.27;11.35;;;;;;;7.46;100.00;98615.47;4881489;29;20088;-89
2021/12/25 00:24:18;;;;;;;17.77;11.90;;;;;;;7.46;100.00;98607.50;4866428;29;20041;-88
2021/12/25 00:26:56;;;;;;;17.38;11.23;;;;;;;7.47;100.00;98598.53;4881156;29;20036;-90
2021/12/25 00:34:44;;;;;;;15.70;11.15;;;;;;;7.48;100.00;98598.38;4874282;29;20052;-91
2021/12/25 00:37:13;;;;;;;15.77;10.75;;;;;;;7.47;100.00;98596.72;4890542;29;20044;-91
2021/12/25 00:39:45;;;;;;;16.60;11.40;;;;;;;7.45;100.00;98588.06;4894413;29;20148;-89
2021/12/25 00:42:14;;;;;;;17.27;11.85;;;;;;;7.45;100.00;98587.22;4894464;29;20042;-91
2021/12/25 00:44:43;;;;;;;15.70;11.25;;;;;;;7.41;100.00;98592.00;4909595;29;20036;-87
2021/12/25 00:47:10;;;;;;;16.95;11.27;;;;;;;7.42;100.00;98584.84;4894134;29;20067;-87
2021/12/25 00:49:39;;;;;;;16.67;11.43;;;;;;;7.41;100.00;98581.38;4893866;29;20150;-89
2021/12/25 00:52:08;;;;;;;18.55;12.68;;;;;;;7.41;100.00;98580.53;4893809;29;20032;-89
2021/12/25 00:54:37;;;;;;;17.27;11.77;;;;;;;7.43;100.00;98578.56;4909160;29;20040;-89
2021/12/25 00:57:05;;;;;;;16.15;11.43;;;;;;;7.42;100.00;98583.03;4893526;29;20063;-90
2021/12/25 00:59:32;;;;;;;;;;;;;;;7.44;100.00;98581.06;4893992;29;20126;-90
2021/12/25 01:02:01;;;;;;;16.25;10.85;;;;;;;7.43;100.00;98576.72;4893370;29;19914;-88
2021/12/25 01:04:28;;;;;;;;;;;;;;;7.44;100.00;98586.38;4894192;29;20044;-88
2021/12/25 01:06:57;;;;;;;15.73;10.45;;;;;;;7.43;100.00;98581.22;4893191;29;20348;-88
2021/12/25 01:09:26;;;;;;;17.88;11.18;;;;;;;7.44;100.00;98583.72;4893326;29;20038;-89
2021/12/25 01:11:55;;;;;;;17.23;11.05;;;;;;;7.44;100.00;98586.38;4893542;29;20095;-88
2021/12/25 01:14:41;;;;;;;;;;;;;;;7.44;100.00;98581.06;4909968;29;20039;-89
2021/12/25 01:17:24;;;;;;;15.90;9.93;;;;;;;7.45;100.00;98585.38;4895562;29;19919;-90
2021/12/25 01:25:57;;;;;;;14.95;10.35;;;;;;;7.43;100.00;98578.56;4910326;29;20100;-89
2021/12/25 01:49:42;;;;;;;20.27;13.60;;;;;;;7.42;100.00;98577.72;4902153;29;20092;-90
2021/12/25 01:52:10;;;;;;;18.00;12.00;;;;;;;7.42;100.00;98568.91;4899415;29;20045;-90
2021/12/25 01:54:38;;;;;;;22.02;15.45;;;;;;;7.42;100.00;98571.56;4882743;29;20386;-90
2021/12/25 01:57:05;;;;;;;24.20;16.40;;;;;;;7.42;100.00;98575.06;4882519;29;20037;-89
2021/12/25 01:59:32;;;;;;;23.15;15.23;;;;;;;7.38;100.00;98573.69;4884788;29;20043;-90
2021/12/25 02:02:15;;;;;;;24.23;16.90;;;;;;;7.36;100.00;98572.16;4882378;29;20039;-89
2021/12/25 02:04:41;;;;;;;26.00;17.10;;;;;;;7.33;100.00;98578.63;4883806;29;20069;-88
2021/12/25 02:07:07;;;;;;;26.33;17.35;;;;;;;7.30;100.00;98570.97;4899301;29;20071;-91
2021/12/25 02:09:34;;;;;;;27.58;18.02;;;;;;;7.33;100.00;98575.13;4882592;29;20036;-88
2021/12/25 02:12:00;;;;;;;22.17;16.00;;;;;;;7.34;100.00;98572.31;4897234;29;20055;-88
2021/12/25 02:14:29;;;;;;;26.02;17.92;;;;;;;7.32;100.00;98574.31;4884546;29;20036;-88
2021/12/25 02:17:13;;;;;;;19.35;14.55;;;;;;;7.30;100.00;98570.13;4882686;29;20039;-89
2021/12/25 02:19:49;;;;;;;23.80;16.73;;;;;;;7.26;100.00;98578.41;4886999;29;20143;-88
2021/12/25 02:22:20;;;;;;;20.42;14.23;;;;;;;7.29;100.00;98571.13;4883150;29;20159;-89
2021/12/25 02:24:46;;;;;;;21.77;15.55;;;;;;;7.32;100.00;98576.13;4882821;29;20786;-87
2021/12/25 02:27:14;;;;;;;19.55;13.05;;;;;;;7.32;100.00;98574.31;4883378;29;20038;-90
2021/12/25 02:29:40;;;;;;;17.63;13.02;;;;;;;7.32;100.00;98576.13;4883207;29;20168;-89
2021/12/25 02:32:07;;;;;;;17.63;12.70;;;;;;;7.22;100.00;98568.22;4883235;29;20071;-89
2021/12/25 02:34:34;;;;;;;16.13;12.25;;;;;;;7.21;100.00;98570.03;4882562;29;20036;-90
2021/12/25 02:37:01;;;;;;;17.77;11.77;;;;;;;7.22;100.00;98570.88;4883783;29;20052;-88
2021/12/25 02:39:28;;;;;;;17.85;11.13;;;;;;;7.21;100.00;98567.38;4889435;29;20473;-89
2021/12/25 02:41:54;;;;;;;15.50;10.65;;;;;;;7.18;100.00;98572.16;4889381;29;20068;-89
2021/12/25 02:44:22;;;;;;;14.18;10.82;;;;;;;7.17;100.00;98570.50;4889219;29;20130;-88
2021/12/25 02:46:53;;;;;;;14.93;11.05;;;;;;;7.19;100.00;98572.03;4889718;29;20036;-87
2021/12/25 02:49:21;;;;;;;13.15;9.70;;;;;;;7.15;100.00;98569.81;4905633;29;20041;-89
2021/12/25 02:51:48;;;;;;;15.30;11.03;;;;;;;7.13;100.00;98564.66;4888985;29;20427;-89
2021/12/25 02:54:16;;;;;;;14.32;10.68;;;;;;;7.14;100.00;98560.16;4889563;29;20061;-88
2021/12/25 02:56:43;;;;;;;15.18;10.73;;;;;;;7.17;100.00;98563.38;4889451;29;20044;-88
2021/12/25 02:59:15;;;;;;;15.45;10.98;;;;;;;7.13;100.00;98562.00;4889525;29;20040;-90
2021/12/25 03:01:43;;;;;;;16.10;11.23;;;;;;;7.11;100.00;98569.28;4889224;29;20037;-90
2021/12/25 03:04:10;;;;;;;14.73;10.10;;;;;;;7.04;100.00;98562.88;4889330;29;20041;-88
2021/12/25 03:06:38;;;;;;;15.57;10.18;;;;;;;7.07;100.00;98565.22;4889191;29;20041;-88
2021/12/25 03:09:06;;;;;;;15.35;10.95;;;;;;;7.08;100.00;98558.09;4889470;29;20036;-89
2021/12/25 03:11:33;;;;;;;14.93;10.82;;;;;;;7.07;100.00;98551.09;4904116;29;20069;-89
2021/12/25 03:14:11;;;;;;;14.10;10.45;;;;;;;6.89;100.00;98559.88;4889265;29;20092;-89
2021/12/25 03:16:37;;;;;;;13.65;10.13;;;;;;;6.87;100.00;98563.69;4890658;29;20032;-90
2021/12/25 03:19:09;;;;;;;16.20;11.60;;;;;;;6.83;100.00;98554.34;4889440;29;20033;-88
2021/12/25 03:21:36;;;;;;;13.25;9.95;;;;;;;6.85;100.00;98555.84;4892722;29;20040;-90
2021/12/25 03:24:03;;;;;;;14.68;10.45;;;;;;;6.90;100.00;98555.41;4892672;29;20036;-89
2021/12/25 03:26:33;;;;;;;13.73;9.82;;;;;;;6.84;100.00;98566.63;4892939;29;20040;-88
2021/12/25 03:29:03;;;;;;;11.90;9.20;;;;;;;6.86;100.00;98567.31;4892629;29;20040;-89
2021/12/25 03:31:31;;;;;;;12.50;9.63;;;;;;;6.90;100.00;98561.56;4892865;29;20147;-89
2021/12/25 03:33:57;;;;;;;11.90;8.98;;;;;;;6.84;100.00;98563.97;4892648;29;20036;-90
2021/12/25 03:36:24;;;;;;;10.48;8.32;;;;;;;6.80;100.00;98570.56;4895086;29;20067;-91
2021/12/25 03:38:51;;;;;;;11.25;9.13;;;;;;;6.77;100.00;98565.56;4895225;29;20055;-89
2021/12/25 03:41:18;;;;;;;11.70;8.50;;;;;;;6.77;100.00;98569.06;4894675;29;20043;-88
2021/12/25 03:43:45;;;;;;;10.80;8.63;;;;;;;6.78;100.00;98561.94;4910677;29;20095;-90
2021/12/25 03:46:12;;;;;;;11.15;8.10;;;;;;;6.77;100.00;98562.91;4894482;29;20032;-88
2021/12/25 03:49:24;;;;;;;9.05;7.68;;;;;;;6.73;100.00;98567.69;4911239;29;20092;-89
2021/12/25 03:59:54;;;;;;;9.52;8.07;;;;;;;6.67;100.00;98567.44;4913204;29;20047;-88
2021/12/25 04:02:26;;;;;;;8.85;7.20;;;;;;;6.69;100.00;98561.00;4895402;29;20043;-88
2021/12/25 04:04:52;;;;;;;10.00;7.20;;;;;;;6.61;100.00;98561.69;4895325;29;20095;-90
2021/12/25 04:07:51;;;;;;;8.60;7.25;;;;;;;6.63;100.00;98561.59;4894699;29;20036;-89
2021/12/25 04:10:07;;;;;;;9.18;6.78;;;;;;;6.64;100.00;98555.28;4911964;29;20056;-89
2021/12/25 04:12:33;;;;;;;7.97;6.95;;;;;;;6.58;100.00;98555.84;4894247;29;20043;-90
2021/12/25 04:15:00;;;;;;;7.55;6.47;;;;;;;6.49;100.00;98556.75;4894648;29;20044;-89
2021/12/25 04:17:26;;;;;;;7.22;6.18;;;;;;;6.51;100.00;98554.78;4894098;29;20043;-89
2021/12/25 04:19:52;;;;;;;8.00;6.88;;;;;;;6.45;99.93;98552.72;4894655;29;20032;-88
2021/12/25 04:22:26;;;;;;;8.40;6.70;;;;;;;6.43;100.00;98562.63;4894421;29;20080;-88
2021/12/25 04:24:53;;;;;;;7.97;7.00;;;;;;;6.42;100.00;98559.16;4895739;29;20118;-88
2021/12/25 04:27:19;;;;;;;8.07;6.47;;;;;;;6.43;100.00;98560.81;4894250;29;20032;-87
2021/12/25 04:29:50;;;;;;;9.25;6.45;;;;;;;6.40;100.00;98563.75;4894313;29;20039;-89
2021/12/25 05:04:38;;;;;;;6.43;5.75;;;;;;;6.17;99.67;98578.38;4909636;29;20032;-89
2021/12/25 05:07:06;;;;;;;6.13;5.53;;;;;;;6.11;99.33;98589.56;4910516;29;20083;-88
2021/12/25 05:09:33;;;;;;;6.85;5.85;;;;;;;6.13;99.72;98588.44;4909330;29;20047;-91
2021/12/25 05:12:00;;;;;;;7.63;5.93;;;;;;;6.15;99.46;98590.94;4909275;29;20913;-88
2021/12/25 05:14:28;;;;;;;6.47;5.65;;;;;;;6.19;99.51;98589.69;4909489;29;20489;-87
2021/12/25 05:16:58;;;;;;;6.80;6.10;;;;;;;6.21;99.42;98583.25;4909195;29;20068;-89
2021/12/25 05:19:25;;;;;;;6.68;5.63;;;;;;;6.05;99.31;98592.78;4909707;29;20070;-89
2021/12/25 05:21:52;;;;;;;6.32;5.70;;;;;;;6.21;99.63;98593.03;4908935;29;20078;-89
2021/12/25 05:24:18;;;;;;;6.22;5.63;;;;;;;6.13;99.08;98584.94;4909238;29;20036;-89
2021/12/25 05:26:46;;;;;;;6.57;5.88;;;;;;;6.11;98.54;98581.59;4893300;29;20099;-88
2021/12/25 05:29:21;;;;;;;6.07;5.47;;;;;;;5.98;98.61;98590.69;4892727;29;20059;-88
2021/12/25 05:31:48;;;;;;;6.68;5.75;;;;;;;5.96;99.05;98592.66;4894496;29;20044;-88
2021/12/25 05:34:15;;;;;;;6.28;5.47;;;;;;;6.04;98.69;98596.41;4908874;29;20103;-88
2021/12/25 05:36:43;;;;;;;6.60;5.90;;;;;;;6.01;98.59;98589.56;4904022;29;20386;-88
2021/12/25 05:39:13;;;;;;;7.55;6.20;;;;;;;6.06;98.87;98597.09;4883967;29;20108;-88
2021/12/25 05:41:40;;;;;;;6.68;5.72;;;;;;;6.02;99.00;98593.91;4883928;29;20104;-89
2021/12/25 05:44:08;;;;;;;6.38;5.72;;;;;;;6.06;98.68;98594.47;4883415;29;20036;-90
2021/12/25 05:46:35;;;;;;;6.10;5.50;;;;;;;6.00;98.33;98601.16;4884479;29;20516;-88
2021/12/25 05:49:04;;;;;;;5.75;5.15;;;;;;;5.90;98.17;98606.50;4897078;29;20137;-90
2021/12/25 05:51:32;;;;;;;5.82;5.22;;;;;;;5.96;98.49;98605.09;4898547;29;20040;-88
2021/12/25 05:54:00;;;;;;;6.05;5.25;;;;;;;5.85;97.57;98614.00;4883297;29;20040;-89
2021/12/25 05:56:27;;;;;;;9.32;5.00;;;;;;;5.84;97.65;98615.00;4883825;29;20107;-88
2021/12/25 05:58:55;;;;;;;5.25;4.75;;;;;;;5.87;97.43;98620.00;4882897;29;20037;-90
2021/12/25 06:01:22;;;;;;;5.50;4.95;;;;;;;5.76;97.32;98629.94;4883327;29;20058;-88
2021/12/25 06:03:50;;;;;;;5.68;4.70;;;;;;;5.85;97.37;98627.28;4882707;29;20029;-89
2021/12/25 06:06:18;;;;;;;6.93;4.80;;;;;;;5.82;97.39;98632.03;4890806;29;20044;-89
2021/12/25 06:08:45;;;;;;;5.75;4.88;;;;;;;5.71;96.90;98637.47;4883612;29;20067;-90
2021/12/25 06:11:12;;;;;;;5.13;4.63;;;;;;;5.77;97.56;98634.25;4883492;29;20048;-89
2021/12/25 06:13:48;;;;;;;5.38;4.50;;;;;;;5.66;97.34;98630.75;4883004;29;20032;-88
2021/12/25 06:16:16;;;;;;;5.18;4.47;;;;;;;5.45;96.61;98639.81;4891545;29;20091;-89
2021/12/25 06:18:44;;;;;;;5.07;4.57;;;;;;;5.37;96.65;98645.81;4898561;29;20138;-88
2021/12/25 06:21:14;;;;;;;5.10;4.60;;;;;;;5.40;96.94;98650.00;4897658;29;20163;-89
2021/12/25 06:23:44;;;;;;;4.82;4.38;;;;;;;5.41;97.36;98651.69;4883709;29;20040;-89
2021/12/25 06:26:13;;;;;;;5.28;4.70;;;;;;;5.42;97.05;98648.88;4882161;29;20051;-89
2021/12/25 06:28:41;;;;;;;5.20;4.70;;;;;;;5.56;96.64;98653.78;4882317;29;20151;-88
2021/12/25 06:31:10;;;;;;;6.40;4.90;;;;;;;5.75;97.13;98663.59;4883510;29;20035;-90
2021/12/25 06:33:39;;;;;;;5.57;4.28;;;;;;;5.57;96.68;98662.56;4890755;29;20079;-90
2021/12/25 06:36:08;;;;;;;5.65;4.70;;;;;;;5.63;96.89;98677.94;4885228;29;20048;-88
2021/12/25 06:38:40;;;;;;;5.05;4.55;;;;;;;5.60;96.22;98675.56;4892053;29;20036;-89
2021/12/25 06:41:10;;;;;;;5.18;4.68;;;;;;;5.58;96.07;98677.50;4892080;29;20966;-89
2021/12/25 06:43:41;;;;;;;5.47;4.82;;;;;;;5.58;96.41;98680.16;4892412;29;20036;-89
2021/12/25 06:46:11;;;;;;;6.47;4.60;;;;;;;5.60;96.13;98680.84;4908295;29;20051;-89
2021/12/25 06:48:41;;;;;;;5.18;4.68;;;;;;;5.61;96.13;98682.53;4891992;29;20390;-89
2021/12/25 06:51:09;;;;;;;5.82;5.18;;;;;;;5.49;96.00;98683.63;4891828;29;20461;-89
2021/12/25 06:53:40;;;;;;;5.18;4.68;;;;;;;5.46;95.58;98681.25;4908200;29;20446;-89
2021/12/25 06:56:08;;;;;;;5.28;4.78;;;;;;;5.60;96.00;98691.47;4911255;29;20453;-89
2021/12/25 06:58:38;;;;;;;5.68;5.10;;;;;;;5.56;95.50;98690.06;4895368;29;20036;-88
2021/12/25 07:01:08;;;;;;;6.13;5.53;;;;;;;5.47;95.53;98696.19;4895968;29;20513;-91
2021/12/25 07:03:38;;;;;;;6.10;5.30;;;;;;;5.40;95.50;98690.59;4911883;29;20054;-90
2021/12/25 07:06:08;;;;;;;5.43;4.93;;;;;;;5.40;95.23;98695.06;4911783;29;20036;-90
2021/12/25 07:08:37;;;;;;;5.75;5.15;;;;;;;5.19;95.34;98698.63;4911705;29;20083;-89
2021/12/25 07:11:05;;;;;;;;;;;;;;;5.31;95.09;98699.38;4911354;29;20043;-89
2021/12/25 07:13:33;;;;;;;5.73;5.13;;;;;;;5.24;94.98;98700.91;4895612;29;19994;-89
2021/12/25 07:16:03;;;;;;;6.30;5.63;;;;;;;5.24;95.58;98701.72;4895805;29;20028;-89
2021/12/25 07:18:33;;;;;;;5.55;5.00;;;;;;;5.31;95.53;98700.22;4911574;29;20458;-89
2021/12/25 07:21:02;;;;;;;5.25;4.75;;;;;;;5.32;95.68;98711.66;4895368;29;20510;-90
2021/12/25 07:23:32;;;;;;;5.85;5.35;;;;;;;5.30;95.22;98705.66;4895242;29;20046;-89
2021/12/25 07:26:01;;;;;;;5.78;5.28;;;;;;;5.25;95.54;98716.66;4911204;29;20095;-89
2021/12/25 07:28:30;;;;;;;6.30;5.70;;;;;;;5.20;95.27;98716.22;4911444;29;20036;-90
2021/12/25 07:31:00;;;;;;;6.45;5.85;;;;;;;5.26;95.08;98713.03;4895223;29;20028;-89
2021/12/25 07:33:32;;;;;;;5.35;4.85;;;;;;;5.37;94.96;98714.72;4894945;29;20124;-89
2021/12/25 07:36:00;;;;;;;5.80;5.25;;;;;;;5.22;95.31;98716.09;4909256;29;20075;-90
2021/12/25 07:38:29;;;;;;;5.28;4.78;;;;;;;5.22;94.64;98721.38;4901724;29;20036;-89
2021/12/25 07:40:58;;;;;;;5.43;4.93;;;;;;;5.25;94.32;98718.47;4884844;29;20055;-89
2021/12/25 07:43:27;;;;;;;5.28;4.78;;;;;;;5.28;94.61;98726.16;4884447;29;20036;-92
2021/12/25 07:45:59;;;;;;;5.57;4.40;;;;;;;5.23;94.33;98729.22;4887203;29;20982;-89
2021/12/25 07:48:33;;;;;;;4.95;4.45;;;;;;;5.26;94.62;98736.06;4886774;29;20043;-89
2021/12/25 07:51:02;;;;;;;5.03;4.53;;;;;;;5.22;94.00;98732.00;4886510;29;20032;-90
2021/12/25 07:53:31;;;;;;;5.30;4.80;;;;;;;5.11;93.78;98738.19;4886331;29;20426;-89
2021/12/25 07:56:00;;;;;;;5.30;4.80;;;;;;;5.14;93.79;98739.75;4884239;29;20040;-88
2021/12/25 07:58:28;;;;;;;5.38;4.85;;;;;;;5.03;94.24;98741.53;4886145;29;20040;-89
2021/12/25 08:00:57;;;;;;;5.60;5.05;;;;;;;4.96;94.21;98743.03;4892920;29;20040;-89
2021/12/25 08:03:29;;;;;;;5.38;4.88;;;;;;;4.96;94.59;98745.69;4893655;29;20069;-90
2021/12/25 08:05:57;;;;;;;5.15;4.63;;;;;;;4.87;94.28;98751.78;4885765;29;20040;-87
2021/12/25 08:08:27;;;;;;;5.20;4.70;;;;;;;5.02;94.52;98749.59;4885655;29;20040;-88
2021/12/25 08:10:56;;;;;;;5.97;5.38;;;;;;;4.94;94.49;98752.06;4901026;29;20051;-89
2021/12/25 08:13:24;;;;;;;5.72;5.13;;;;;;;4.90;94.29;98754.16;4884546;29;20033;-89
2021/12/25 08:15:52;;;;;;;5.93;5.32;;;;;;;4.78;94.00;98749.06;4884776;29;20074;-89
2021/12/25 08:18:21;;;;;;;6.00;5.40;;;;;;;4.65;93.57;98755.38;4882984;29;20040;-89
2021/12/25 08:20:52;;;;;;;6.03;5.40;;;;;;;4.62;93.57;98754.81;4885539;29;20038;-89
2021/12/25 08:23:22;;;;;;;6.13;5.53;;;;;;;4.63;93.91;98752.03;4885798;29;20041;-89
2021/12/25 08:25:53;;;;;;;5.88;5.25;;;;;;;4.73;93.86;98766.19;4900905;29;20043;-88
2021/12/25 08:28:24;;;;;;;5.57;5.07;;;;;;;4.81;93.69;98765.53;4900356;29;20512;-88
2021/12/25 08:30:54;;;;;;;5.75;5.15;;;;;;;4.83;94.12;98758.31;4885138;29;20040;-88
2021/12/25 08:33:26;;;;;;;6.18;5.57;;;;;;;4.63;93.56;98762.63;4885980;29;20462;-89
2021/12/25 08:35:56;;;;;;;5.55;5.05;;;;;;;4.87;93.70;98765.00;4883999;29;20104;-88
2021/12/25 08:38:27;;;;;;;6.28;5.38;;;;;;;4.88;93.84;98772.00;4885924;29;20039;-91
2021/12/25 08:40:58;;;;;;;6.00;5.40;;;;;;;4.85;93.54;98766.94;4884313;29;20040;-89
2021/12/25 08:43:33;;;;;;;6.03;5.40;;;;;;;4.83;93.44;98776.00;4893081;29;20036;-88
2021/12/25 08:46:13;;;;;;;5.53;4.90;;;;;;;5.00;93.95;98772.75;4886870;29;20047;-89
2021/12/25 08:48:43;;;;;;;6.35;5.70;;;;;;;4.81;93.47;98778.78;4884472;29;20036;-88
2021/12/25 08:51:17;;;;;;;6.75;5.60;;;;;;;4.74;93.23;98774.97;4885503;29;20478;-90
2021/12/25 08:53:48;;;;;;;6.90;5.97;;;;;;;4.78;93.62;98783.50;4884622;29;20044;-88
2021/12/25 08:56:20;;;;;;;7.40;6.25;;;;;;;4.75;93.21;98781.94;4884176;29;20044;-89
2021/12/25 08:58:50;;;;;;;7.57;5.70;;;;;;;4.87;93.02;98780.91;4885115;29;20036;-89
2021/12/25 09:01:20;;;;;;;6.22;5.60;;;;;;;4.88;92.96;98787.03;4883353;29;20032;-88
2021/12/25 09:03:51;;;;;;;6.35;5.75;;;;;;;4.82;93.10;98788.41;4885110;29;20028;-88
2021/12/25 09:06:23;;;;;;;6.72;6.03;;;;;;;4.75;93.01;98792.53;4883644;29;20756;-90
2021/12/25 09:08:53;;;;;;;6.47;5.88;;;;;;;4.76;92.80;98796.88;4885165;29;20104;-89
2021/12/25 09:11:25;;;;;;;6.30;5.70;;;;;;;4.78;93.09;98805.53;4884619;29;20071;-90
2021/12/25 09:13:56;;;;;;;6.80;5.72;;;;;;;4.80;93.13;98797.44;4884417;29;20037;-90
2021/12/25 09:16:29;;;;;;;7.07;6.15;;;;;;;4.62;92.26;98805.13;4900262;29;20505;-90
2021/12/25 09:19:02;;;;;;;6.93;5.78;;;;;;;4.59;93.18;98813.31;4885363;29;20032;-89
2021/12/25 09:21:33;;;;;;;6.75;5.53;;;;;;;4.47;92.76;98806.41;4883862;29;20029;-88
2021/12/25 09:24:04;;;;;;;6.60;5.72;;;;;;;4.49;92.87;98810.59;4885259;29;20036;-88
2021/12/25 09:26:36;;;;;;;6.07;5.43;;;;;;;4.71;93.08;98809.63;4892480;29;20040;-89
2021/12/25 09:29:09;;;;;;;6.68;6.00;;;;;;;4.52;93.03;98809.50;4885221;29;20112;-89
2021/12/25 09:31:41;;;;;;;7.55;6.38;;;;;;;4.55;93.05;98819.84;4883461;29;20032;-89
2021/12/25 09:34:13;;;;;;;7.10;6.40;;;;;;;4.62;92.74;98828.94;4892344;29;20064;-90
2021/12/25 09:36:44;;;;;;;6.80;5.88;;;;;;;4.64;92.69;98819.91;4888551;29;20520;-89
2021/12/25 09:39:16;;;;;;;7.65;6.88;;;;;;;4.69;92.93;98833.59;4909061;29;20036;-89
2021/12/25 09:41:48;;;;;;;7.20;6.50;;;;;;;4.64;92.67;98830.50;4908594;29;20038;-89
2021/12/25 09:44:21;;;;;;;6.80;6.10;;;;;;;4.69;92.78;98824.81;4893310;29;20494;-90
2021/12/25 09:46:54;;;;;;;7.65;6.38;;;;;;;4.68;93.11;98831.91;4909330;29;20458;-89
2021/12/25 09:49:27;;;;;;;7.68;6.68;;;;;;;4.58;92.26;98835.47;4893287;29;20107;-90
2021/12/25 09:52:03;;;;;;;7.80;6.63;;;;;;;4.53;92.54;98840.31;4908135;29;20040;-90
2021/12/25 09:54:36;;;;;;;8.60;7.57;;;;;;;4.61;92.48;98846.63;4892747;29;20048;-90
2021/12/25 09:57:09;;;;;;;8.30;7.43;;;;;;;4.67;92.56;98859.34;4892910;29;20069;-90
2021/12/25 10:00:10;;;;;;;8.43;7.53;;;;;;;4.54;91.90;98856.06;4893064;29;20036;-89
2021/12/25 10:02:48;;;;;;;7.65;6.85;;;;;;;4.38;92.17;98848.56;4908433;29;20078;-90
2021/12/25 10:05:35;;;;;;;7.45;6.75;;;;;;;4.61;92.43;98853.72;4909138;29;20039;-89
2021/12/25 10:08:20;;;;;;;8.30;7.15;;;;;;;4.60;92.41;98855.53;4893224;29;20044;-92
2021/12/25 10:11:04;;;;;;;8.32;7.47;;;;;;;4.44;91.90;98847.19;4898012;29;20126;-90
2021/12/25 10:13:36;;;;;;;9.30;7.97;;;;;;;4.36;92.43;98836.41;4892913;29;20926;-89
2021/12/25 10:16:32;;;;;;;8.68;7.88;;;;;;;4.33;92.37;98845.44;4892707;29;20031;-91
2021/12/25 10:19:27;;;;;;;8.75;7.85;;;;;;;4.37;92.78;98846.03;4892559;29;20390;-91
2021/12/25 10:22:22;;;;;;;10.63;8.40;;;;;;;4.41;93.07;98837.72;4892500;29;20044;-90
2021/12/25 10:25:33;;;;;;;;;;;;;;;;;;;;;
2021/12/25 10:28:27;;;;;;;9.85;8.00;;;;;;;4.42;92.57;98833.25;4908050;29;20103;-90
2021/12/25 10:31:14;;;;;;;9.27;8.30;;;;;;;4.33;92.77;98832.22;4891909;29;20050;-90
2021/12/25 10:33:50;;;;;;;9.45;8.45;;;;;;;4.32;92.86;98837.63;4907295;29;20043;-90
2021/12/25 10:36:53;;;;;;;9.68;8.40;;;;;;;4.32;92.86;98840.28;4891773;29;20056;-92
2021/12/25 10:39:50;;;;;;;9.90;8.90;;;;;;;4.42;93.20;98835.91;4892220;29;20040;-91
2021/12/25 10:42:30;;;;;;;10.23;9.05;;;;;;;4.48;92.74;98835.38;4907035;29;20630;-91
2021/12/25 10:45:39;;;;;;;;;;;;;;;;;;;;;
2021/12/25 10:48:43;;;;;;;10.25;8.80;;;;;;;4.36;92.98;98831.13;4910050;29;20103;-91
2021/12/25 10:55:35;;;;;;;10.90;9.73;;;;;;;4.50;92.97;98830.81;4853938;29;20045;-91
2021/12/25 10:58:36;;;;;;;11.82;10.32;;;;;;;4.49;93.47;98837.06;4870826;29;20045;-91
2021/12/25 11:01:16;;;;;;;10.50;9.38;;;;;;;4.40;92.25;98837.84;4890132;29;20048;-88
2021/12/25 11:04:08;;;;;;;11.07;9.98;;;;;;;4.43;92.76;98837.59;4907497;29;20119;-91
2021/12/25 11:07:04;;;;;;;10.60;9.50;;;;;;;4.47;92.71;98836.34;4893729;29;20044;-90
2021/12/25 11:09:59;;;;;;;10.23;9.23;;;;;;;4.33;92.59;98845.44;4896685;29;20067;-90
2021/12/25 11:12:41;;;;;;;10.23;8.85;;;;;;;4.34;93.01;98846.28;4922385;29;20044;-89
2021/12/25 11:15:44;;;;;;;9.75;8.75;;;;;;;4.39;92.98;98836.16;4892062;29;20063;-89
2021/12/25 11:18:46;;;;;;;10.27;8.75;;;;;;;4.32;92.91;98835.00;4891850;29;20040;-91
2021/12/25 11:21:25;;;;;;;10.00;9.00;;;;;;;4.32;92.77;98835.00;4894655;29;20112;-90
2021/12/25 11:24:12;;;;;;;10.32;8.82;;;;;;;4.29;93.00;98835.25;4892035;29;20095;-91
2021/12/25 11:26:47;;;;;;;10.85;8.98;;;;;;;4.39;92.62;98839.66;4906660;29;20554;-91
2021/12/25 11:29:41;;;;;;;9.80;8.80;;;;;;;4.43;92.76;98837.59;4887572;29;20032;-89
2021/12/25 11:32:28;;;;;;;11.23;9.48;;;;;;;4.25;92.55;98831.13;4906662;29;20032;-89
2021/12/25 11:35:28;;;;;;;10.10;9.10;;;;;;;4.30;92.98;98823.69;4889989;29;20047;-91
2021/12/25 11:38:47;;;;;;;9.25;8.35;;;;;;;4.38;93.01;98831.84;4874588;29;20049;-91
2021/12/25 11:41:54;;;;;;;;;;;;;;;;;;;;;
2021/12/25 11:44:55;;;;;;;10.32;9.18;;;;;;;4.43;92.78;98832.28;4904081;29;20134;-90
2021/12/25 11:47:55;;;;;;;9.80;8.80;;;;;;;4.45;92.66;98830.34;4881467;29;20052;-92
2021/12/25 11:51:26;;;;;;;9.73;8.73;;;;;;;4.54;92.53;98828.75;4884898;29;20040;-90
2021/12/25 12:01:20;;;;;;;9.70;8.70;;;;;;;4.35;92.74;98813.56;4917247;29;20056;-93
2021/12/25 12:39:27;;;;;;;11.07;9.68;;;;;;;4.58;92.20;98828.34;4918562;29;20120;-90
2021/12/25 12:46:19;;;;;;;10.60;9.50;;;;;;;4.48;92.53;98845.97;4839219;29;21021;-91
2021/12/25 12:50:14;;;;;;;;;;;;;;;;;;;;;
2021/12/25 12:59:23;;;;;;;12.32;10.82;;;;;;;4.25;92.65;98849.66;4891115;29;20178;-91
2021/12/25 13:02:25;;;;;;;10.77;9.48;;;;;;;4.30;92.74;98852.78;4898967;29;20044;-89
2021/12/25 13:08:47;;;;;;;;;;;;;;;;;;;;;
2021/12/25 13:12:18;;;;;;;;;;;;;;;;;;;;;
2021/12/25 13:15:22;;;;;;;11.43;9.98;;;;;;;4.25;92.23;98847.84;4872504;29;20108;-90
2021/12/25 13:18:29;;;;;;;11.00;9.80;;;;;;;4.35;92.28;98850.59;4877091;29;20060;-90
2021/12/25 13:21:53;;;;;;;;;;;;;;;;;;;;;
2021/12/25 13:25:18;;;;;;;11.48;10.27;;;;;;;4.37;91.95;98846.03;4834348;29;20117;-91
2021/12/25 13:31:56;;;;;;;;;;;;;;;;;;;;;
2021/12/25 13:34:45;;;;;;;11.10;9.73;;;;;;;4.25;92.01;98860.25;4900645;29;20044;-90
2021/12/25 13:43:40;;;;;;;10.00;8.90;;;;;;;4.13;91.79;98861.25;4883624;29;20048;-90
2021/12/25 13:46:53;;;;;;;9.73;8.73;;;;;;;4.01;92.10;98857.78;4872805;29;20053;-90
2021/12/25 13:50:04;;;;;;;9.48;8.48;;;;;;;3.94;92.07;98854.81;4888973;29;20076;-89
2021/12/25 13:56:44;;;;;;;9.90;8.77;;;;;;;4.11;92.67;98853.44;4847808;29;20530;-90
2021/12/25 14:02:54;;;;;;;9.55;8.55;;;;;;;4.02;92.31;98856.81;4819786;29;20126;-90
2021/12/25 14:05:38;;;;;;;9.38;8.43;;;;;;;3.98;92.46;98848.31;4789184;29;20062;-91
2021/12/25 14:08:33;;;;;;;;;;;;;;;;;;;;;
2021/12/25 14:11:30;;;;;;;;;;;;;;;;;;;;;
2021/12/25 14:17:38;;;;;;;11.02;8.68;;;;;;;3.96;92.00;98858.16;4884206;29;20096;-90
2021/12/25 14:20:31;;;;;;;10.55;8.93;;;;;;;3.93;92.08;98847.84;4896198;29;20040;-91
2021/12/25 14:23:43;;;;;;;10.25;9.25;;;;;;;4.01;91.87;98845.41;4896354;29;20041;-92
2021/12/25 14:26:40;;;;;;;11.02;9.52;;;;;;;4.01;91.89;98840.13;4898378;29;20040;-88
2021/12/25 14:29:39;;;;;;;10.65;9.05;;;;;;;3.99;91.86;98854.44;4883517;29;20036;-92
2021/12/25 14:32:36;;;;;;;10.23;9.13;;;;;;;4.02;91.40;98856.81;4880742;29;20050;-89
2021/12/25 14:35:47;;;;;;;;;;;;;;;;;;;;;
2021/12/25 14:38:56;;;;;;;11.07;9.45;;;;;;;3.88;91.43;98850.00;4897751;29;20120;-90
2021/12/25 14:41:40;;;;;;;10.57;9.20;;;;;;;3.94;91.38;98861.91;4882154;29;20059;-89
2021/12/25 14:44:39;;;;;;;12.27;10.10;;;;;;;3.96;91.65;98866.09;4878170;29;20127;-92
2021/12/25 14:47:44;;;;;;;;;;;;;;;;;;;;;
2021/12/25 14:50:17;;;;;;;11.07;9.00;;;;;;;3.87;91.42;98874.78;4905623;29;19970;-88
2021/12/25 14:53:14;;;;;;;9.77;8.60;;;;;;;3.85;91.32;98873.22;4891062;29;20055;-90
2021/12/25 14:55:58;;;;;;;10.38;9.05;;;;;;;3.67;91.42;98868.41;4884054;29;20051;-90
2021/12/25 15:01:47;;;;;;;10.80;9.05;;;;;;;3.88;91.37;98878.25;4922916;29;20036;-90
2021/12/25 15:04:27;;;;;;;10.05;8.98;;;;;;;3.93;91.37;98881.38;4891808;29;20036;-89
2021/12/25 15:07:06;;;;;;;10.70;8.95;;;;;;;3.93;91.29;98889.31;4892392;29;20044;-90
2021/12/25 15:09:57;;;;;;;10.32;9.18;;;;;;;4.06;90.67;98885.53;4923063;29;20040;-90
2021/12/25 15:12:39;;;;;;;10.82;9.10;;;;;;;4.00;90.82;98882.56;4908231;29;20103;-90